createdAt,value
2018-04-18T00:01:01.054Z,78.00
2018-04-18T00:03:29.913Z,78.00
2018-04-18T00:05:57.992Z,78.00
2018-04-18T00:08:26.064Z,78.00
2018-04-18T00:10:54.152Z,78.20
2018-04-18T00:13:22.177Z,78.30
2018-04-18T00:15:50.239Z,78.60
2018-04-18T00:18:18.293Z,78.50
2018-04-18T00:20:46.405Z,79.00
2018-04-18T00:23:14.847Z,79.20
2018-04-18T00:25:42.938Z,79.40
2018-04-18T00:28:10.990Z,80.00
2018-04-18T00:30:39.044Z,80.40
2018-04-18T00:33:07.090Z,80.30
2018-04-18T00:35:35.936Z,81.10
2018-04-18T00:38:04.032Z,80.80
2018-04-18T00:40:32.074Z,81.20
2018-04-18T00:43:00.128Z,81.20
2018-04-18T00:45:28.203Z,80.90
2018-04-18T00:47:56.275Z,81.20
2018-04-18T00:50:24.337Z,80.90
2018-04-18T00:52:52.420Z,80.90
2018-04-18T00:55:20.483Z,80.20
2018-04-18T00:57:48.573Z,80.20
2018-04-18T01:00:17.155Z,80.00
2018-04-18T01:02:45.635Z,79.80
2018-04-18T01:05:13.721Z,79.90
2018-04-18T01:07:41.805Z,80.00
2018-04-18T01:10:09.877Z,80.00
2018-04-18T01:12:38.270Z,80.20
2018-04-18T01:15:07.087Z,81.60
2018-04-18T01:17:35.183Z,80.30
2018-04-18T01:20:03.228Z,80.30
2018-04-18T01:22:31.297Z,80.50
2018-04-18T01:24:59.376Z,80.50
2018-04-18T01:27:28.208Z,80.60
2018-04-18T01:29:56.280Z,80.60
2018-04-18T01:32:24.346Z,81.00
2018-04-18T01:34:53.245Z,80.40
2018-04-18T01:37:22.816Z,80.90
2018-04-18T01:39:50.913Z,80.30
2018-04-18T01:42:18.955Z,80.30
2018-04-18T01:44:48.161Z,80.90
2018-04-18T01:47:16.973Z,80.30
2018-04-18T01:49:45.040Z,80.40
2018-04-18T01:52:13.102Z,80.50
2018-04-18T01:54:41.563Z,80.50
2018-04-18T01:57:09.612Z,80.70
2018-04-18T01:59:38.086Z,80.80
2018-04-18T02:02:06.919Z,81.30
2018-04-18T02:04:34.976Z,80.90
2018-04-18T02:07:03.130Z,80.80
2018-04-18T02:09:31.201Z,80.90
2018-04-18T02:11:59.256Z,81.00
2018-04-18T02:14:28.091Z,82.20
2018-04-18T02:16:56.165Z,81.10
2018-04-18T02:19:24.235Z,81.10
2018-04-18T02:21:52.273Z,81.00
2018-04-18T02:24:20.346Z,81.00
2018-04-18T02:26:48.442Z,81.60
2018-04-18T02:29:16.474Z,81.20
2018-04-18T02:31:45.310Z,81.80
2018-04-18T02:34:13.345Z,81.30
2018-04-18T02:36:41.429Z,81.30
2018-04-18T02:39:09.474Z,81.20
2018-04-18T02:41:38.679Z,81.30
2018-04-18T02:44:07.520Z,81.90
2018-04-18T02:46:35.571Z,81.40
2018-04-18T02:49:03.672Z,81.40
2018-04-18T02:51:31.717Z,81.50
2018-04-18T02:53:59.788Z,81.60
2018-04-18T02:56:28.592Z,81.70
2018-04-18T02:58:57.422Z,82.30
2018-04-18T03:01:26.241Z,82.30
2018-04-18T03:03:54.304Z,81.90
2018-04-18T03:06:22.342Z,82.00
2018-04-18T03:08:51.042Z,82.00
2018-04-18T03:11:19.848Z,82.60
2018-04-18T03:13:47.939Z,82.10
2018-04-18T03:16:16.005Z,82.70
2018-04-18T03:18:44.058Z,82.50
2018-04-18T03:21:12.135Z,82.50
2018-04-18T03:23:40.358Z,82.40
2018-04-18T03:26:08.437Z,82.30
2018-04-18T03:28:36.486Z,82.60
2018-04-18T03:31:05.378Z,82.90
2018-04-18T03:33:33.448Z,83.40
2018-04-18T03:36:01.546Z,82.80
2018-04-18T03:38:29.608Z,82.80
2018-04-18T03:40:57.674Z,82.80
2018-04-18T03:43:27.273Z,83.50
2018-04-18T03:45:56.088Z,83.10
2018-04-18T03:48:26.056Z,84.10
2018-04-18T03:50:54.842Z,83.70
2018-04-18T03:53:22.913Z,84.50
2018-04-18T03:55:50.958Z,84.60
2018-04-18T03:58:19.806Z,85.20
2018-04-18T04:00:47.875Z,84.40
2018-04-18T04:03:15.937Z,84.40
2018-04-18T04:05:44.013Z,84.70
2018-04-18T04:08:12.085Z,85.20
2018-04-18T04:10:40.222Z,85.00
2018-04-18T04:13:08.271Z,84.70
2018-04-18T04:15:37.524Z,85.30
2018-04-18T04:18:17.481Z,84.30
2018-04-18T04:20:57.440Z,84.20
2018-04-18T04:23:37.287Z,84.20
2018-04-18T04:26:05.398Z,84.00
2018-04-18T04:28:33.403Z,84.40
2018-04-18T04:31:01.490Z,83.50
2018-04-18T04:33:29.529Z,83.60
2018-04-18T04:35:59.219Z,84.30
2018-04-18T04:38:27.302Z,83.40
2018-04-18T04:40:55.331Z,83.40
2018-04-18T04:43:23.412Z,84.90
2018-04-18T04:45:51.478Z,82.80
2018-04-18T04:48:19.555Z,82.50
2018-04-18T04:50:47.607Z,81.90
2018-04-18T04:53:15.671Z,81.90
2018-04-18T04:55:43.761Z,81.70
2018-04-18T04:58:11.838Z,81.60
2018-04-18T05:00:40.754Z,82.00
2018-04-18T05:03:08.827Z,81.90
2018-04-18T05:05:36.861Z,80.90
2018-04-18T05:08:04.909Z,80.80
2018-04-18T05:10:32.990Z,80.80
2018-04-18T05:13:01.797Z,81.00
2018-04-18T05:15:29.862Z,80.20
2018-04-18T05:17:57.936Z,80.70
2018-04-18T05:20:26.042Z,80.50
2018-04-18T05:22:54.058Z,80.40
2018-04-18T05:25:22.165Z,80.40
2018-04-18T05:27:50.207Z,80.20
2018-04-18T05:30:19.062Z,80.20
2018-04-18T05:32:47.134Z,80.40
2018-04-18T05:35:15.178Z,80.10
2018-04-18T05:37:44.534Z,80.40
2018-04-18T05:40:12.615Z,79.90
2018-04-18T05:42:40.697Z,79.70
2018-04-18T05:45:09.182Z,79.20
2018-04-18T05:47:37.195Z,79.10
2018-04-18T05:50:05.265Z,78.90
2018-04-18T05:52:33.398Z,79.40
2018-04-18T05:55:01.466Z,76.10
2018-04-18T05:57:30.367Z,74.40
2018-04-18T05:59:58.417Z,70.70
2018-04-18T06:02:26.569Z,70.90
2018-04-18T06:04:54.650Z,60.50
2018-04-18T06:07:22.714Z,55.10
2018-04-18T06:09:50.778Z,50.90
2018-04-18T06:12:18.882Z,46.50
2018-04-18T06:14:46.921Z,46.90
2018-04-18T06:17:14.988Z,44.90
2018-04-18T06:19:43.084Z,42.50
2018-04-18T06:22:11.883Z,39.50
2018-04-18T06:24:39.954Z,40.20
2018-04-18T06:27:08.006Z,37.60
2018-04-18T06:29:36.108Z,34.00
2018-04-18T06:32:04.168Z,34.40
2018-04-18T06:34:33.090Z,33.40
2018-04-18T06:37:01.907Z,32.00
2018-04-18T06:39:29.979Z,30.60
2018-04-18T06:41:58.070Z,29.90
2018-04-18T06:44:26.149Z,30.40
2018-04-18T06:46:54.223Z,29.80
2018-04-18T06:49:22.279Z,29.00
2018-04-18T06:51:50.365Z,29.00
2018-04-18T06:54:18.475Z,28.00
2018-04-18T06:56:47.373Z,27.50
2018-04-18T06:59:15.438Z,26.50
2018-04-18T07:01:44.656Z,26.40
2018-04-18T07:04:13.375Z,26.10
2018-04-18T07:06:41.435Z,24.60
2018-04-18T07:09:10.093Z,24.10
2018-04-18T07:11:38.202Z,24.70
2018-04-18T07:14:06.265Z,24.00
2018-04-18T07:16:34.346Z,23.50
2018-04-18T07:19:03.887Z,22.50
2018-04-18T07:21:33.029Z,22.50
2018-04-18T07:24:02.610Z,22.40
2018-04-18T07:26:36.566Z,22.20
2018-04-18T07:29:04.815Z,21.60
2018-04-18T07:31:32.842Z,22.90
2018-04-18T07:34:00.948Z,20.20
2018-04-18T07:36:29.015Z,20.60
2018-04-18T07:38:57.090Z,19.70
2018-04-18T07:41:25.161Z,20.10
2018-04-18T07:43:56.317Z,18.80
2018-04-18T07:46:31.675Z,18.20
2018-04-18T07:49:00.848Z,17.60
2018-04-18T07:51:32.742Z,19.30
2018-04-18T07:54:04.350Z,19.00
2018-04-18T07:59:27.391Z,17.10
2018-04-18T08:01:59.084Z,16.50
2018-04-18T08:07:09.960Z,15.00
2018-04-18T08:09:42.635Z,15.20
2018-04-18T08:12:15.206Z,15.80
2018-04-18T08:17:36.080Z,14.60
2018-04-18T08:23:09.915Z,14.90
2018-04-18T08:28:25.043Z,13.90
2018-04-18T08:31:03.894Z,13.80
2018-04-18T08:33:40.351Z,13.50
2018-04-18T08:36:14.601Z,13.40
2018-04-18T08:38:46.162Z,13.00
2018-04-18T08:43:51.491Z,14.00
2018-04-18T08:46:25.342Z,12.10
2018-04-18T08:49:04.435Z,12.30
2018-04-18T08:54:29.078Z,12.00
2018-04-18T08:57:03.544Z,11.90
2018-04-18T08:59:43.370Z,11.60
2018-04-18T09:02:17.926Z,11.60
2018-04-18T09:07:28.023Z,11.40
2018-04-18T09:09:56.632Z,10.80
2018-04-18T09:12:25.183Z,11.10
2018-04-18T09:14:54.264Z,10.70
2018-04-18T09:17:23.820Z,11.80
2018-04-18T09:19:52.078Z,10.60
2018-04-18T09:22:21.372Z,11.30
2018-04-18T09:24:49.662Z,10.60
2018-04-18T09:27:19.662Z,11.30
2018-04-18T09:29:48.109Z,10.50
2018-04-18T09:32:17.352Z,10.50
2018-04-18T09:34:45.891Z,10.40
2018-04-18T09:37:15.102Z,11.90
2018-04-18T09:39:43.634Z,11.80
2018-04-18T09:42:12.197Z,11.70
2018-04-18T09:44:40.428Z,11.20
2018-04-18T09:47:09.708Z,10.40
2018-04-18T09:49:38.854Z,10.30
2018-04-18T09:52:09.440Z,9.90
2018-04-18T09:54:37.933Z,10.80
2018-04-18T09:57:07.119Z,10.60
2018-04-18T09:59:42.784Z,11.20
2018-04-18T10:02:18.786Z,9.70
2018-04-18T10:04:48.576Z,9.80
2018-04-18T10:07:19.034Z,10.20
2018-04-18T10:09:52.577Z,10.20
2018-04-18T10:12:24.258Z,11.10
2018-04-18T10:14:58.706Z,11.80
2018-04-18T10:17:32.096Z,11.50
2018-04-18T10:20:02.169Z,11.80
2018-04-18T10:22:30.831Z,13.40
2018-04-18T10:24:59.278Z,12.40
2018-04-18T10:27:29.581Z,12.50
2018-04-18T10:30:02.953Z,12.30
2018-04-18T10:32:31.536Z,12.30
2018-04-18T10:35:01.196Z,12.90
2018-04-18T10:37:30.272Z,13.60
2018-04-18T10:39:59.668Z,13.70
2018-04-18T10:42:30.561Z,13.60
2018-04-18T10:45:01.059Z,13.40
2018-04-18T10:47:31.494Z,13.60
2018-04-18T10:50:01.102Z,13.70
2018-04-18T10:52:29.779Z,13.90
2018-04-18T10:54:58.855Z,14.00
2018-04-18T10:57:27.763Z,14.10
2018-04-18T10:59:56.297Z,15.60
2018-04-18T11:02:25.113Z,14.10
2018-04-18T11:04:54.221Z,14.70
2018-04-18T11:07:26.453Z,14.40
2018-04-18T11:09:56.160Z,15.00
2018-04-18T11:12:24.486Z,14.60
2018-04-18T11:14:52.838Z,14.90
2018-04-18T11:17:22.119Z,14.90
2018-04-18T11:19:50.470Z,14.40
2018-04-18T11:22:19.121Z,14.90
2018-04-18T11:24:47.554Z,15.30
2018-04-18T11:27:17.775Z,15.80
2018-04-18T11:29:47.126Z,16.50
2018-04-18T11:32:17.711Z,16.00
2018-04-18T11:34:48.849Z,15.90
2018-04-18T11:37:19.106Z,16.70
2018-04-18T11:39:47.514Z,16.20
2018-04-18T11:42:16.401Z,16.90
2018-04-18T11:44:44.927Z,17.70
2018-04-18T11:47:14.539Z,17.80
2018-04-18T11:49:43.138Z,17.50
2018-04-18T11:52:12.722Z,18.30
2018-04-18T11:54:42.203Z,17.80
2018-04-18T11:57:11.502Z,18.60
2018-04-18T11:59:40.541Z,18.10
2018-04-18T12:02:09.365Z,19.50
2018-04-18T12:04:38.095Z,18.80
2018-04-18T12:07:09.912Z,19.50
2018-04-18T12:09:39.127Z,20.20
2018-04-18T12:12:08.272Z,20.50
2018-04-18T12:14:36.975Z,19.90
2018-04-18T12:17:05.428Z,20.10
2018-04-18T12:19:34.624Z,20.20
2018-04-18T12:22:05.241Z,20.60
2018-04-18T12:24:34.729Z,20.30
2018-04-18T12:29:37.736Z,20.10
2018-04-18T12:32:06.242Z,20.10
2018-04-18T12:34:34.565Z,20.90
2018-04-18T12:37:04.199Z,20.70
2018-04-18T12:39:33.167Z,21.10
2018-04-18T12:42:02.447Z,21.40
2018-04-18T12:44:32.128Z,22.10
2018-04-18T12:47:00.777Z,22.60
2018-04-18T12:49:29.156Z,22.70
2018-04-18T12:51:57.566Z,22.70
2018-04-18T12:54:25.914Z,22.70
2018-04-18T12:56:55.175Z,22.40
2018-04-18T12:59:26.926Z,22.70
2018-04-18T13:01:55.686Z,22.70
2018-04-18T13:04:24.265Z,22.60
2018-04-18T13:06:52.565Z,22.60
2018-04-18T13:09:20.904Z,22.50
2018-04-18T13:11:49.809Z,23.00
2018-04-18T13:14:18.038Z,22.70
2018-04-18T13:16:46.435Z,22.90
2018-04-18T13:19:17.467Z,23.10
2018-04-18T13:21:45.843Z,23.30
2018-04-18T13:24:14.570Z,24.10
2018-04-18T13:26:43.871Z,23.20
2018-04-18T13:29:13.349Z,23.90
2018-04-18T13:31:43.239Z,24.40
2018-04-18T13:34:11.572Z,24.20
2018-04-18T13:36:44.551Z,24.20
2018-04-18T13:39:13.522Z,25.10
2018-04-18T13:41:41.879Z,24.40
2018-04-18T13:44:10.123Z,25.30
2018-04-18T13:46:38.407Z,25.10
2018-04-18T13:49:07.655Z,24.50
2018-04-18T13:51:36.032Z,24.30
2018-04-18T13:54:05.107Z,24.60
2018-04-18T13:56:33.290Z,25.00
2018-04-18T13:59:02.347Z,26.20
2018-04-18T14:01:30.700Z,25.20
2018-04-18T14:03:59.866Z,25.20
2018-04-18T14:06:28.082Z,25.60
2018-04-18T14:08:56.437Z,26.30
2018-04-18T14:11:24.616Z,26.00
2018-04-18T14:13:52.859Z,26.00
2018-04-18T14:16:21.107Z,26.50
2018-04-18T14:18:49.298Z,26.70
2018-04-18T14:21:18.263Z,27.70
2018-04-18T14:23:46.552Z,27.10
2018-04-18T14:26:14.824Z,26.40
2018-04-18T14:28:43.033Z,26.90
2018-04-18T14:31:12.076Z,26.60
2018-04-18T14:33:40.269Z,27.00
2018-04-18T14:36:08.468Z,26.50
2018-04-18T14:38:37.549Z,27.10
2018-04-18T14:41:05.816Z,26.70
2018-04-18T14:43:34.531Z,26.70
2018-04-18T14:46:02.749Z,26.80
2018-04-18T14:48:32.132Z,26.90
2018-04-18T14:51:01.071Z,27.10
2018-04-18T14:53:29.233Z,27.20
2018-04-18T14:55:57.347Z,27.20
2018-04-18T14:58:25.545Z,27.10
2018-04-18T15:00:53.696Z,26.50
2018-04-18T15:03:22.582Z,27.20
2018-04-18T15:05:50.710Z,27.00
2018-04-18T15:08:18.834Z,27.10
2018-04-18T15:10:47.014Z,27.50
2018-04-18T15:13:15.159Z,27.50
2018-04-18T15:15:43.299Z,27.90
2018-04-18T15:18:11.474Z,27.40
2018-04-18T15:20:39.610Z,27.40
2018-04-18T15:23:08.494Z,27.90
2018-04-18T15:25:37.368Z,27.90
2018-04-18T15:28:05.901Z,27.50
2018-04-18T15:30:34.176Z,27.80
2018-04-18T15:33:02.289Z,27.60
2018-04-18T15:35:30.531Z,28.10
2018-04-18T15:37:58.673Z,27.90
2018-04-18T15:40:27.572Z,28.00
2018-04-18T15:42:56.457Z,28.10
2018-04-18T15:45:25.369Z,28.10
2018-04-18T15:47:53.721Z,27.80
2018-04-18T15:50:21.834Z,27.90
2018-04-18T15:52:49.949Z,28.10
2018-04-18T15:55:18.164Z,27.90
2018-04-18T15:57:46.282Z,27.90
2018-04-18T16:00:15.962Z,28.70
2018-04-18T16:02:44.125Z,28.30
2018-04-18T16:05:12.241Z,28.30
2018-04-18T16:07:40.682Z,28.40
2018-04-18T16:10:08.822Z,28.80
2018-04-18T16:12:37.698Z,29.00
2018-04-18T16:15:06.805Z,26.70
2018-04-18T16:17:34.915Z,28.10
2018-04-18T16:20:03.055Z,28.30
2018-04-18T16:22:32.099Z,28.80
2018-04-18T16:25:00.372Z,28.20
2018-04-18T16:27:28.573Z,28.40
2018-04-18T16:29:56.703Z,28.60
2018-04-18T16:32:24.846Z,29.40
2018-04-18T16:34:53.003Z,29.30
2018-04-18T16:37:22.282Z,29.20
2018-04-18T16:39:50.439Z,29.20
2018-04-18T16:42:18.564Z,29.40
2018-04-18T16:44:47.814Z,29.50
2018-04-18T16:47:15.919Z,29.80
2018-04-18T16:49:44.045Z,30.10
2018-04-18T16:52:12.957Z,29.70
2018-04-18T16:54:41.120Z,29.80
2018-04-18T16:57:09.287Z,30.10
2018-04-18T16:59:38.876Z,30.20
2018-04-18T17:02:07.005Z,30.20
2018-04-18T17:04:35.143Z,29.60
2018-04-18T17:07:03.333Z,29.70
2018-04-18T17:09:31.513Z,29.60
2018-04-18T17:11:59.601Z,29.80
2018-04-18T17:14:27.825Z,29.80
2018-04-18T17:16:55.921Z,29.90
2018-04-18T17:19:24.115Z,30.00
2018-04-18T17:21:52.275Z,30.90
2018-04-18T17:24:20.439Z,30.80
2018-04-18T17:26:48.540Z,32.10
2018-04-18T17:29:16.646Z,32.30
2018-04-18T17:31:44.802Z,32.60
2018-04-18T17:34:13.623Z,33.70
2018-04-18T17:36:41.698Z,33.60
2018-04-18T17:39:09.742Z,33.80
2018-04-18T17:41:37.828Z,33.80
2018-04-18T17:44:05.886Z,34.40
2018-04-18T17:46:34.722Z,34.60
2018-04-18T17:49:02.809Z,34.30
2018-04-18T17:51:30.866Z,34.80
2018-04-18T17:53:58.990Z,34.90
2018-04-18T17:56:27.828Z,34.50
2018-04-18T17:58:59.732Z,34.90
2018-04-18T18:01:28.585Z,36.00
2018-04-18T18:03:56.629Z,35.90
2018-04-18T18:06:24.720Z,35.70
2018-04-18T18:08:52.814Z,36.50
2018-04-18T18:11:20.875Z,36.20
2018-04-18T18:13:48.960Z,36.40
2018-04-18T18:16:17.017Z,36.40
2018-04-18T18:18:48.666Z,36.20
2018-04-18T18:21:20.213Z,36.20
2018-04-18T18:23:48.304Z,36.60
2018-04-18T18:26:16.392Z,36.40
2018-04-18T18:28:45.476Z,36.70
2018-04-18T18:31:14.412Z,36.80
2018-04-18T18:33:42.507Z,37.50
2018-04-18T18:36:10.636Z,38.00
2018-04-18T18:38:39.694Z,38.70
2018-04-18T18:41:08.814Z,38.80
2018-04-18T18:43:37.086Z,38.50
2018-04-18T18:46:05.243Z,38.70
2018-04-18T18:48:33.328Z,38.70
2018-04-18T18:51:04.780Z,39.20
2018-04-18T18:53:33.779Z,39.90
2018-04-18T18:56:01.863Z,39.70
2018-04-18T18:58:35.660Z,40.40
2018-04-18T19:01:05.271Z,40.20
2018-04-18T19:03:33.348Z,39.80
2018-04-18T19:06:02.203Z,40.70
2018-04-18T19:08:30.274Z,40.20
2018-04-18T19:11:00.342Z,40.80
2018-04-18T19:13:28.439Z,40.90
2018-04-18T19:15:56.619Z,41.10
2018-04-18T19:18:24.674Z,41.40
2018-04-18T19:20:52.750Z,41.30
2018-04-18T19:23:20.846Z,41.10
2018-04-18T19:25:48.913Z,41.70
2018-04-18T19:28:17.146Z,41.80
2018-04-18T19:30:45.620Z,42.10
2018-04-18T19:33:14.524Z,42.90
2018-04-18T19:35:42.661Z,42.40
2018-04-18T19:38:10.747Z,42.70
2018-04-18T19:40:38.837Z,43.30
2018-04-18T19:43:17.628Z,43.50
2018-04-18T19:45:47.984Z,43.60
2018-04-18T19:48:16.858Z,44.30
2018-04-18T19:50:45.049Z,44.20
2018-04-18T19:53:13.161Z,44.20
2018-04-18T19:55:42.295Z,43.30
2018-04-18T19:58:13.299Z,44.60
2018-04-18T20:00:41.366Z,45.30
2018-04-18T20:03:09.945Z,45.50
2018-04-18T20:05:41.569Z,46.20
2018-04-18T20:08:11.231Z,46.50
2018-04-18T20:10:39.423Z,46.40
2018-04-18T20:13:08.201Z,46.40
2018-04-18T20:15:37.793Z,46.70
2018-04-18T20:18:07.939Z,47.80
2018-04-18T20:20:36.061Z,47.70
2018-04-18T20:23:04.155Z,48.50
2018-04-18T20:25:32.258Z,49.10
2018-04-18T20:28:00.315Z,48.90
2018-04-18T20:30:28.395Z,49.60
2018-04-18T20:32:56.459Z,49.60
2018-04-18T20:35:24.555Z,49.70
2018-04-18T20:37:52.658Z,50.40
2018-04-18T20:40:21.710Z,50.50
2018-04-18T20:42:58.322Z,50.50
2018-04-18T20:45:26.407Z,51.20
2018-04-18T20:47:54.564Z,51.10
2018-04-18T20:50:25.099Z,52.10
2018-04-18T20:52:53.328Z,52.00
2018-04-18T20:55:21.426Z,52.80
2018-04-18T20:57:50.287Z,52.70
2018-04-18T21:00:19.228Z,52.60
2018-04-18T21:02:50.226Z,53.80
2018-04-18T21:05:25.177Z,53.70
2018-04-18T21:07:54.080Z,54.30
2018-04-18T21:10:23.043Z,54.10
2018-04-18T21:12:51.959Z,54.20
2018-04-18T21:15:20.183Z,54.10
2018-04-18T21:17:48.373Z,54.90
2018-04-18T21:20:16.506Z,55.70
2018-04-18T21:22:46.313Z,55.90
2018-04-18T21:25:14.504Z,56.60
2018-04-18T21:27:42.639Z,56.70
2018-04-18T21:30:10.732Z,57.30
2018-04-18T21:32:38.844Z,57.20
2018-04-18T21:35:06.995Z,57.70
2018-04-18T21:37:35.114Z,59.20
2018-04-18T21:40:03.978Z,59.90
2018-04-18T21:42:32.054Z,59.70
2018-04-18T21:45:00.225Z,59.50
2018-04-18T21:47:29.014Z,59.40
2018-04-18T21:49:57.108Z,59.30
2018-04-18T21:52:26.055Z,59.60
2018-04-18T21:54:55.766Z,59.70
2018-04-18T21:57:23.905Z,59.70
2018-04-18T21:59:53.698Z,60.30
2018-04-18T22:02:22.568Z,61.00
2018-04-18T22:04:50.695Z,60.90
2018-04-18T22:07:19.578Z,61.40
2018-04-18T22:09:47.714Z,62.00
2018-04-18T22:12:16.443Z,61.90
2018-04-18T22:14:44.536Z,63.80
2018-04-18T22:17:12.599Z,64.00
2018-04-18T22:19:45.570Z,64.10
2018-04-18T22:22:23.565Z,64.60
2018-04-18T22:24:51.632Z,64.70
2018-04-18T22:27:19.704Z,64.80
2018-04-18T22:29:47.836Z,65.20
2018-04-18T22:32:15.951Z,64.50
2018-04-18T22:34:44.056Z,64.30
2018-04-18T22:37:12.120Z,64.50
2018-04-18T22:39:41.457Z,64.20
2018-04-18T22:42:12.290Z,64.10
2018-04-18T22:44:41.211Z,64.60
2018-04-18T22:47:09.416Z,64.20
2018-04-18T22:49:37.453Z,64.50
2018-04-18T22:52:05.552Z,64.40
2018-04-18T22:54:33.634Z,64.60
2018-04-18T22:57:02.592Z,64.10
2018-04-18T22:59:31.470Z,64.40
2018-04-18T23:01:59.512Z,64.30
2018-04-18T23:04:27.605Z,64.30
2018-04-18T23:06:57.114Z,64.90
2018-04-18T23:09:25.181Z,65.10
2018-04-18T23:11:53.309Z,65.40
2018-04-18T23:14:22.653Z,65.70
2018-04-18T23:16:50.702Z,65.50
2018-04-18T23:19:19.591Z,66.00
2018-04-18T23:21:47.684Z,66.00
2018-04-18T23:24:15.752Z,66.40
2018-04-18T23:26:43.855Z,66.10
2018-04-18T23:29:12.932Z,67.10
2018-04-18T23:31:41.779Z,66.90
2018-04-18T23:34:09.879Z,66.70
2018-04-18T23:36:37.949Z,66.70
2018-04-18T23:39:06.030Z,67.40
2018-04-18T23:41:34.183Z,67.70
2018-04-18T23:44:02.269Z,68.10
2018-04-18T23:46:30.351Z,67.90
2018-04-18T23:48:58.561Z,68.30
2018-04-18T23:51:26.684Z,68.70
2018-04-18T23:53:55.611Z,69.40
2018-04-18T23:56:24.549Z,68.80
2018-04-18T23:58:52.650Z,68.40
